Terminal Aerodrome Forecast
Issued by NWS

Home | Current Version | Previous Version | Text Only | Print | Product List | Glossary On
Versions: 1 2 3 4 5 6 7 8 9 10 11 12 13 14 15 16 17 18 19 20 21 22 23
000
FTPQ31 PGUM 231700
TAFPQ
TAF

PKMJ 231720Z 2318/2418 08011KT P6SM VCSH FEW016 SCT050 BKN120
      TEMPO 2400/2404 5SM SHRA SCT014CB BKN025=

USA.gov is the U.S. government's official web portal to all federal, state and local government web resources and services.